Terminal Aerodrome Forecast
Issued by NWS

Home | Current Version | Previous Version | Text Only | Print | Product List | Glossary On
Versions: 1 2 3 4 5 6 7 8 9 10 11 12 13
000
FTUS41 KCAR 181738 AAA
TAFHUL
TAF AMD
KHUL 181738Z 1818/1918 12006KT P6SM BKN025
     FM182100 12005KT P6SM BKN025
     FM182200 12005KT P6SM BKN040
     FM190200 13005KT P6SM OVC025
     FM190500 15005KT P6SM OVC005
     FM190700 16005KT 2SM -SN OVC005
     FM191500 20007KT P6SM OVC005=

USA.gov is the U.S. government's official web portal to all federal, state and local government web resources and services.